Main page
METAR-TAF:

METAR-TAF

Airports :

Pohnpei, Micronesia

Pohnpei International Airport

latitude: 06-59N, longitude: 158-12E, elevation: 2 m

Current weather observation

The report was made 5 hours and 5 minutes ago, at 13:50 UTC
Wind 5 kt from the South/Southeast
Temperature 28°C
Humidity 84%
Pressure 1009 hPa
Visibility: 24.1 km
Scattered clouds at a height of 1800 ft
Broken clouds at a height of 13000 ft
Overcast at a height of 30000 ft

METAR: PTPN 231350Z 16005KT 15SM SCT018 BKN130 OVC300 28/25 A2981 RMK LAST

Time: 05:55 (18:55 UTC)

Forecast

The report was made 7 hours and 28 minutes ago, at 11:27 UTC
Forecast valid from 23 at 12 UTC to 24 at 12 UTC
Wind 7 kt from the East
Visibility: 10 km
Scattered clouds at a height of 1800 ft
Broken clouds at a height of 13000 ft
showers in vicinity
Temporary
from 23 at 12 UTC to 23 at 16 UTC
Broken clouds at a height of 1600 ft
light rain showers

TAF: PTPN 231127Z 2312/2412 10007KT P6SM VCSH SCT018 BKN130 TEMPO 2312/2316 -SHRA BKN016

Weather observations and forecasts of more than 4000 airports (METAR and TAF reports).

The available stations are represented by yellow and red dots on the map.

Hover mouse over dot to see the name of the station.

Then click to see weather observations and forecasts.

To change the map : click on the green buttons with a black cross to zoom in, on the green button with a dash to zoom out, or on the green arrows for adjacent maps.


METAR-TAF: